Time;durP1;ratioP1;P1;durP2;ratioP2;P2;SDS_P1;SDS_P2;PMS_P1;PMS_P2;Temp;Humidity;BMP_temperature;BMP_pressure;BME280_temperature;BME280_humidity;BME280_pressure;Samples;Min_cycle;Max_cycle;Signal;HPM_P1;HPM_P2
2021/07/11 00:00:30;;;;;;;11.18;6.72;;;;;;;;;;5015976;28;20219;-62
2021/07/11 00:02:56;;;;;;;12.52;6.30;;;;;;;;;;5033753;28;20041;-62
2021/07/11 00:05:25;;;;;;;13.30;6.80;;;;;;;;;;5014851;28;20039;-61
2021/07/11 00:07:50;;;;;;;10.68;6.47;;;;;;;;;;4999495;28;20094;-62
2021/07/11 00:10:16;;;;;;;11.52;5.78;;;;;;;;;;5014524;28;20960;-63
2021/07/11 00:12:48;;;;;;;14.32;6.22;;;;;;;;;;5029679;28;20025;-63
2021/07/11 00:15:16;;;;;;;9.25;5.25;;;;;;;;;;5024055;28;20075;-61
2021/07/11 00:17:48;;;;;;;13.30;6.75;;;;;;;;;;5029506;28;20037;-62
2021/07/11 00:20:19;;;;;;;15.25;6.00;;;;;;;;;;5030031;28;20107;-63
2021/07/11 00:22:45;;;;;;;11.27;6.82;;;;;;;;;;5032142;28;21041;-61
2021/07/11 00:25:13;;;;;;;10.45;6.30;;;;;;;;;;5030457;28;20032;-62
2021/07/11 00:27:38;;;;;;;10.02;6.13;;;;;;;;;;5031962;28;20045;-62
2021/07/11 00:30:04;;;;;;;11.27;6.35;;;;;;;;;;4996134;28;20033;-62
2021/07/11 00:32:29;;;;;;;11.23;5.57;;;;;;;;;;4996919;28;20036;-62
2021/07/11 00:34:55;;;;;;;11.25;6.10;;;;;;;;;;5032786;28;20040;-62
2021/07/11 00:37:21;;;;;;;9.70;6.43;;;;;;;;;;5031431;28;20376;-62
2021/07/11 00:39:46;;;;;;;11.75;6.10;;;;;;;;;;5013879;28;20047;-61
2021/07/11 00:42:14;;;;;;;12.52;6.32;;;;;;;;;;5000420;28;20116;-61
2021/07/11 00:44:43;;;;;;;16.25;6.70;;;;;;;;;;5012310;28;20181;-63
2021/07/11 00:47:09;;;;;;;12.93;6.57;;;;;;;;;;5014081;28;20047;-62
2021/07/11 00:49:42;;;;;;;10.75;5.88;;;;;;;;;;5012189;28;20071;-63
2021/07/11 00:52:07;;;;;;;9.98;5.85;;;;;;;;;;5002517;28;20029;-62
2021/07/11 00:54:33;;;;;;;8.10;5.40;;;;;;;;;;5017412;28;20029;-63
2021/07/11 00:57:02;;;;;;;9.70;5.88;;;;;;;;;;4999693;28;20028;-62
2021/07/11 00:59:27;;;;;;;10.05;5.93;;;;;;;;;;5033886;28;20110;-62
2021/07/11 01:01:56;;;;;;;16.40;6.78;;;;;;;;;;5022250;28;20045;-62
2021/07/11 01:04:47;;;;;;;10.15;5.68;;;;;;;;;;5035222;28;20044;-61
2021/07/11 01:07:17;;;;;;;12.13;6.63;;;;;;;;;;5031140;28;20045;-64
2021/07/11 01:09:44;;;;;;;15.65;7.03;;;;;;;;;;5034493;28;20032;-63
2021/07/11 01:12:30;;;;;;;12.40;6.82;;;;;;;;;;5019175;28;20159;-62
2021/07/11 01:15:02;;;;;;;13.25;6.40;;;;;;;;;;5014207;28;20697;-62
2021/07/11 01:17:30;;;;;;;15.55;7.20;;;;;;;;;;5033582;28;20024;-61
2021/07/11 01:20:22;;;;;;;16.27;7.43;;;;;;;;;;5032044;28;20109;-62
2021/07/11 01:22:51;;;;;;;15.75;7.82;;;;;;;;;;4986543;28;20053;-62
2021/07/11 01:25:28;;;;;;;13.95;7.70;;;;;;;;;;5035582;28;20036;-64
2021/07/11 01:27:55;;;;;;;15.30;7.25;;;;;;;;;;5002984;28;20095;-62
2021/07/11 01:30:24;;;;;;;12.23;7.25;;;;;;;;;;5018213;28;20086;-62
2021/07/11 01:32:50;;;;;;;13.82;7.88;;;;;;;;;;5016015;28;20781;-63
2021/07/11 01:35:16;;;;;;;18.98;8.68;;;;;;;;;;5035208;28;20115;-61
2021/07/11 01:37:45;;;;;;;16.55;7.93;;;;;;;;;;5005140;28;20155;-62
2021/07/11 01:40:10;;;;;;;17.42;7.72;;;;;;;;;;5003889;28;20039;-62
2021/07/11 01:42:39;;;;;;;15.73;8.20;;;;;;;;;;5017669;28;20040;-63
2021/07/11 01:45:07;;;;;;;21.50;9.93;;;;;;;;;;5034204;28;20033;-64
2021/07/11 01:47:34;;;;;;;17.15;9.65;;;;;;;;;;5032734;28;20047;-62
2021/07/11 01:50:00;;;;;;;18.08;10.20;;;;;;;;;;5035986;28;20059;-62
2021/07/11 01:52:25;;;;;;;19.50;10.02;;;;;;;;;;5032112;28;20472;-61
2021/07/11 01:54:56;;;;;;;18.80;9.57;;;;;;;;;;5019816;28;20059;-63
2021/07/11 01:57:21;;;;;;;16.67;9.25;;;;;;;;;;5017657;28;20108;-63
2021/07/11 01:59:47;;;;;;;17.63;9.57;;;;;;;;;;5032964;28;20092;-64
2021/07/11 02:02:17;;;;;;;22.02;9.55;;;;;;;;;;5033678;28;20040;-62
2021/07/11 02:04:42;;;;;;;17.17;9.98;;;;;;;;;;5000826;28;20669;-62
2021/07/11 02:07:08;;;;;;;18.00;10.02;;;;;;;;;;5016650;28;20066;-62
2021/07/11 02:09:38;;;;;;;24.15;10.55;;;;;;;;;;5015034;28;20661;-62
2021/07/11 02:12:04;;;;;;;17.60;9.38;;;;;;;;;;5016320;28;21901;-62
2021/07/11 02:14:30;;;;;;;19.80;8.90;;;;;;;;;;5001870;28;20032;-62
2021/07/11 02:16:59;;;;;;;18.33;8.35;;;;;;;;;;5014811;28;20037;-62
2021/07/11 02:19:25;;;;;;;17.70;9.45;;;;;;;;;;5031632;28;20025;-63
2021/07/11 02:21:55;;;;;;;17.63;9.27;;;;;;;;;;5016560;28;20088;-62
2021/07/11 02:24:21;;;;;;;14.82;8.73;;;;;;;;;;5032876;28;20135;-61
2021/07/11 02:26:47;;;;;;;19.35;8.48;;;;;;;;;;5032631;28;20040;-63
2021/07/11 02:29:13;;;;;;;14.02;8.38;;;;;;;;;;5030141;28;20033;-62
2021/07/11 02:31:49;;;;;;;17.67;8.82;;;;;;;;;;5033888;28;20025;-62
2021/07/11 02:34:17;;;;;;;15.38;8.02;;;;;;;;;;5013632;28;20036;-61
2021/07/11 02:36:47;;;;;;;19.35;8.07;;;;;;;;;;5018359;28;20036;-63
2021/07/11 02:39:16;;;;;;;14.55;7.40;;;;;;;;;;5017217;28;20025;-62
2021/07/11 02:41:54;;;;;;;16.15;8.45;;;;;;;;;;5018732;28;20024;-62
2021/07/11 02:44:22;;;;;;;14.80;8.23;;;;;;;;;;5016282;28;20037;-62
2021/07/11 02:46:52;;;;;;;14.73;8.68;;;;;;;;;;4999430;28;20099;-62
2021/07/11 02:49:21;;;;;;;14.23;7.65;;;;;;;;;;5032395;28;20546;-62
2021/07/11 02:51:54;;;;;;;13.65;7.40;;;;;;;;;;5016251;28;20036;-62
2021/07/11 02:54:24;;;;;;;18.50;8.88;;;;;;;;;;5033354;28;20040;-62
2021/07/11 02:56:54;;;;;;;13.55;8.10;;;;;;;;;;5032170;28;20119;-62
2021/07/11 02:59:23;;;;;;;14.52;7.60;;;;;;;;;;5029795;28;20040;-61
2021/07/11 03:01:52;;;;;;;14.88;7.35;;;;;;;;;;5033690;28;20064;-61
2021/07/11 03:04:21;;;;;;;16.85;8.75;;;;;;;;;;5003162;28;20037;-62
2021/07/11 03:06:49;;;;;;;12.82;7.68;;;;;;;;;;5016492;28;20376;-62
2021/07/11 03:09:15;;;;;;;13.68;8.45;;;;;;;;;;5033767;28;20035;-62
2021/07/11 03:11:44;;;;;;;15.48;8.77;;;;;;;;;;5015012;28;20031;-62
2021/07/11 03:14:10;;;;;;;13.13;7.60;;;;;;;;;;5014583;28;20033;-61
2021/07/11 03:16:37;;;;;;;17.27;8.50;;;;;;;;;;5034382;28;20523;-62
2021/07/11 03:19:08;;;;;;;13.15;8.00;;;;;;;;;;5029098;28;20041;-62
2021/07/11 03:21:36;;;;;;;20.00;9.60;;;;;;;;;;4995795;28;20052;-62
2021/07/11 03:24:07;;;;;;;16.67;8.07;;;;;;;;;;5032955;28;20024;-62
2021/07/11 03:26:35;;;;;;;16.42;8.05;;;;;;;;;;5015430;28;20074;-62
2021/07/11 03:29:04;;;;;;;15.18;7.88;;;;;;;;;;4998445;28;20049;-62
2021/07/11 03:31:31;;;;;;;23.45;8.48;;;;;;;;;;5030302;28;20035;-62
2021/07/11 03:33:59;;;;;;;13.13;7.43;;;;;;;;;;5032045;28;20040;-61
2021/07/11 03:36:25;;;;;;;15.40;8.10;;;;;;;;;;5013912;28;20091;-62
2021/07/11 03:38:56;;;;;;;17.13;6.63;;;;;;;;;;5015195;28;20057;-62
2021/07/11 03:41:26;;;;;;;17.73;7.63;;;;;;;;;;5015130;28;21087;-62
2021/07/11 03:43:54;;;;;;;16.42;7.70;;;;;;;;;;5031408;28;20035;-62
2021/07/11 03:46:22;;;;;;;15.35;7.07;;;;;;;;;;5031923;28;20052;-62
2021/07/11 03:48:50;;;;;;;15.38;7.95;;;;;;;;;;5031212;28;20021;-61
2021/07/11 03:51:24;;;;;;;14.40;7.57;;;;;;;;;;5014482;28;20072;-61
2021/07/11 03:53:53;;;;;;;14.27;7.32;;;;;;;;;;5031766;28;20052;-62
2021/07/11 03:56:19;;;;;;;14.65;7.75;;;;;;;;;;4999291;28;20086;-62
2021/07/11 03:58:45;;;;;;;14.57;7.82;;;;;;;;;;5030973;28;20056;-62
2021/07/11 04:01:14;;;;;;;15.32;7.50;;;;;;;;;;5016170;28;20029;-62
2021/07/11 04:03:42;;;;;;;17.70;8.73;;;;;;;;;;5000868;28;20025;-62
2021/07/11 04:06:12;;;;;;;11.10;6.85;;;;;;;;;;5015388;28;20075;-62
2021/07/11 04:08:41;;;;;;;13.25;6.35;;;;;;;;;;5013540;28;20055;-61
2021/07/11 04:11:07;;;;;;;17.33;7.07;;;;;;;;;;4985400;28;20037;-61
2021/07/11 04:13:35;;;;;;;10.18;7.30;;;;;;;;;;5014660;28;20039;-63
2021/07/11 04:16:04;;;;;;;11.68;7.20;;;;;;;;;;5032418;28;20025;-63
2021/07/11 04:18:37;;;;;;;16.00;7.13;;;;;;;;;;5031949;28;20028;-61
2021/07/11 04:21:03;;;;;;;13.35;7.70;;;;;;;;;;5013418;28;20080;-62
2021/07/11 04:23:32;;;;;;;16.35;7.57;;;;;;;;;;5015813;28;20119;-62
2021/07/11 04:25:58;;;;;;;11.25;7.00;;;;;;;;;;5031453;28;20051;-63
2021/07/11 04:28:30;;;;;;;13.82;7.38;;;;;;;;;;5017560;28;20041;-62
2021/07/11 04:30:58;;;;;;;14.63;6.75;;;;;;;;;;5036236;28;21034;-63
2021/07/11 04:33:24;;;;;;;14.45;6.25;;;;;;;;;;5035603;28;20032;-62
2021/07/11 04:35:52;;;;;;;9.50;6.10;;;;;;;;;;5034631;28;20074;-62
2021/07/11 04:38:20;;;;;;;11.65;7.18;;;;;;;;;;5018734;28;20076;-63
2021/07/11 04:40:46;;;;;;;12.07;6.50;;;;;;;;;;5019388;28;20045;-63
2021/07/11 04:43:15;;;;;;;13.23;6.03;;;;;;;;;;5000820;28;20067;-63
2021/07/11 04:45:40;;;;;;;11.98;6.53;;;;;;;;;;5003663;28;20405;-62
2021/07/11 04:48:06;;;;;;;10.57;6.15;;;;;;;;;;5015797;28;20048;-61
2021/07/11 04:50:32;;;;;;;10.05;5.93;;;;;;;;;;5035724;28;20037;-63
2021/07/11 04:52:59;;;;;;;9.73;6.05;;;;;;;;;;5035357;28;20103;-61
2021/07/11 04:55:25;;;;;;;10.90;6.85;;;;;;;;;;5035920;28;20036;-61
2021/07/11 04:57:50;;;;;;;10.27;5.90;;;;;;;;;;5018576;28;20745;-62
2021/07/11 05:00:20;;;;;;;8.35;6.20;;;;;;;;;;5017095;28;20126;-62
2021/07/11 05:02:46;;;;;;;11.07;6.30;;;;;;;;;;5018195;28;21060;-62
2021/07/11 05:05:13;;;;;;;10.27;6.28;;;;;;;;;;5033905;28;20064;-62
2021/07/11 05:07:39;;;;;;;10.77;6.53;;;;;;;;;;5000979;28;20128;-62
2021/07/11 05:10:06;;;;;;;10.63;6.53;;;;;;;;;;5003660;28;20110;-62
2021/07/11 05:12:34;;;;;;;10.85;6.55;;;;;;;;;;5034315;28;20106;-62
2021/07/11 05:15:05;;;;;;;9.73;6.20;;;;;;;;;;5016112;28;20056;-62
2021/07/11 05:17:33;;;;;;;14.63;6.85;;;;;;;;;;5036002;28;20032;-61
2021/07/11 05:19:58;;;;;;;10.02;6.53;;;;;;;;;;5034191;28;20424;-61
2021/07/11 05:22:29;;;;;;;10.63;5.90;;;;;;;;;;5017961;28;21083;-62
2021/07/11 05:24:54;;;;;;;7.55;5.65;;;;;;;;;;5036921;28;20033;-63
2021/07/11 05:27:20;;;;;;;9.18;6.03;;;;;;;;;;5001581;28;21973;-63
2021/07/11 05:29:48;;;;;;;12.65;6.22;;;;;;;;;;5017333;28;20037;-61
2021/07/11 05:32:13;;;;;;;9.23;5.93;;;;;;;;;;5017506;28;20108;-62
2021/07/11 05:34:41;;;;;;;10.73;5.75;;;;;;;;;;5035086;28;20434;-62
2021/07/11 05:37:11;;;;;;;9.45;5.72;;;;;;;;;;5035075;28;20439;-63
2021/07/11 05:39:41;;;;;;;7.75;5.38;;;;;;;;;;5034321;28;20029;-62
2021/07/11 05:42:06;;;;;;;8.25;5.10;;;;;;;;;;5017865;28;20095;-62
2021/07/11 05:44:32;;;;;;;10.70;6.07;;;;;;;;;;5003074;28;20037;-62
2021/07/11 05:46:58;;;;;;;6.72;4.68;;;;;;;;;;5017631;28;20040;-63
2021/07/11 05:49:23;;;;;;;8.05;5.60;;;;;;;;;;5016820;28;20475;-62
2021/07/11 05:51:54;;;;;;;7.55;5.20;;;;;;;;;;5017672;28;20468;-61
2021/07/11 05:54:22;;;;;;;8.13;4.95;;;;;;;;;;5002289;28;20102;-63
2021/07/11 05:56:50;;;;;;;6.15;4.50;;;;;;;;;;5035047;28;20111;-63
2021/07/11 05:59:15;;;;;;;6.25;4.28;;;;;;;;;;5034059;28;20040;-62
2021/07/11 06:01:41;;;;;;;7.63;4.55;;;;;;;;;;5033194;28;20041;-62
2021/07/11 06:04:09;;;;;;;7.32;4.68;;;;;;;;;;5016296;28;20052;-63
2021/07/11 06:06:34;;;;;;;12.75;4.10;;;;;;;;;;5016556;28;20124;-63
2021/07/11 06:09:02;;;;;;;5.90;4.25;;;;;;;;;;5000635;28;20059;-64
2021/07/11 06:11:28;;;;;;;9.93;4.13;;;;;;;;;;5033279;28;20058;-62
2021/07/11 06:14:03;;;;;;;7.90;3.97;;;;;;;;;;4999510;28;20938;-64
2021/07/11 06:16:33;;;;;;;7.00;3.85;;;;;;;;;;4991571;28;20485;-65
2021/07/11 06:19:04;;;;;;;4.50;3.85;;;;;;;;;;5000271;28;20137;-62
2021/07/11 06:21:29;;;;;;;6.13;3.65;;;;;;;;;;5034018;28;20486;-63
2021/07/11 06:23:59;;;;;;;8.02;4.05;;;;;;;;;;5000548;28;20057;-64
2021/07/11 06:26:25;;;;;;;5.65;3.83;;;;;;;;;;5033940;28;20331;-63
2021/07/11 06:28:53;;;;;;;6.82;3.50;;;;;;;;;;5033159;28;20035;-63
2021/07/11 06:31:24;;;;;;;7.25;3.80;;;;;;;;;;5014956;28;20032;-63
2021/07/11 06:33:49;;;;;;;7.00;3.60;;;;;;;;;;4986442;28;20536;-63
2021/07/11 06:36:15;;;;;;;4.50;3.45;;;;;;;;;;5033130;28;20622;-63
2021/07/11 06:38:43;;;;;;;4.68;3.28;;;;;;;;;;5012060;28;20049;-63
2021/07/11 06:41:11;;;;;;;5.25;3.55;;;;;;;;;;5012829;28;20052;-63
2021/07/11 06:43:41;;;;;;;5.15;3.53;;;;;;;;;;5010412;28;20044;-63
2021/07/11 06:46:06;;;;;;;3.97;3.20;;;;;;;;;;4999120;28;20048;-65
2021/07/11 06:48:32;;;;;;;4.70;3.42;;;;;;;;;;5011240;28;20041;-63
2021/07/11 06:51:00;;;;;;;4.32;2.97;;;;;;;;;;5014948;28;20056;-62
2021/07/11 06:53:28;;;;;;;6.22;3.05;;;;;;;;;;5011686;28;20172;-63
2021/07/11 06:55:54;;;;;;;5.53;3.38;;;;;;;;;;5012529;28;20033;-63
2021/07/11 06:58:19;;;;;;;4.60;3.13;;;;;;;;;;5012560;28;20066;-63
2021/07/11 07:00:48;;;;;;;4.47;2.95;;;;;;;;;;5012421;28;20049;-62
2021/07/11 07:03:16;;;;;;;4.70;3.08;;;;;;;;;;5012602;28;20037;-63
2021/07/11 07:05:43;;;;;;;3.35;2.92;;;;;;;;;;5014217;28;20053;-64
2021/07/11 07:08:09;;;;;;;5.75;3.30;;;;;;;;;;5012716;28;20095;-64
2021/07/11 07:10:35;;;;;;;3.50;2.45;;;;;;;;;;5013118;28;20037;-63
2021/07/11 07:13:00;;;;;;;5.88;2.97;;;;;;;;;;5012409;28;20139;-63
2021/07/11 07:15:28;;;;;;;6.10;2.78;;;;;;;;;;5011749;28;20041;-65
2021/07/11 07:17:58;;;;;;;3.78;2.65;;;;;;;;;;5011073;28;20033;-62
2021/07/11 07:20:24;;;;;;;5.13;3.13;;;;;;;;;;5011670;28;20049;-63
2021/07/11 07:22:52;;;;;;;3.55;2.88;;;;;;;;;;5009422;28;20044;-63
2021/07/11 07:25:22;;;;;;;4.75;3.22;;;;;;;;;;5012543;28;20555;-63
2021/07/11 07:27:47;;;;;;;6.55;4.82;;;;;;;;;;5011536;28;20033;-65
2021/07/11 07:30:18;;;;;;;5.00;3.42;;;;;;;;;;4994371;28;20037;-63
2021/07/11 07:32:45;;;;;;;3.40;2.50;;;;;;;;;;5012673;28;20036;-63
2021/07/11 07:35:11;;;;;;;7.28;2.85;;;;;;;;;;4995802;28;20180;-65
2021/07/11 07:37:37;;;;;;;4.00;2.40;;;;;;;;;;5021628;28;20095;-64
2021/07/11 07:40:06;;;;;;;6.10;2.75;;;;;;;;;;5014707;28;20503;-64
2021/07/11 07:42:34;;;;;;;2.85;2.60;;;;;;;;;;5033237;28;20040;-67
2021/07/11 07:45:04;;;;;;;3.90;2.78;;;;;;;;;;4999633;28;20036;-64
2021/07/11 07:47:32;;;;;;;3.90;2.63;;;;;;;;;;5014245;28;20492;-65
2021/07/11 07:50:00;;;;;;;6.55;2.85;;;;;;;;;;5028988;28;20035;-64
2021/07/11 07:52:26;;;;;;;3.97;2.72;;;;;;;;;;5031671;28;22246;-65
2021/07/11 07:54:56;;;;;;;3.53;2.63;;;;;;;;;;5003493;28;20963;-64
2021/07/11 07:57:22;;;;;;;3.92;2.60;;;;;;;;;;4998052;28;20128;-64
2021/07/11 07:59:48;;;;;;;3.58;2.40;;;;;;;;;;5014500;28;20036;-64
2021/07/11 08:02:17;;;;;;;7.80;3.05;;;;;;;;;;5033080;28;20032;-65
2021/07/11 08:04:43;;;;;;;3.25;2.58;;;;;;;;;;4997611;28;20036;-64
2021/07/11 08:07:08;;;;;;;3.22;2.25;;;;;;;;;;5031613;28;20029;-64
2021/07/11 08:09:36;;;;;;;3.03;2.47;;;;;;;;;;4997989;28;20635;-64
2021/07/11 08:12:01;;;;;;;4.20;2.58;;;;;;;;;;5014556;28;20043;-64
2021/07/11 08:14:27;;;;;;;3.63;2.10;;;;;;;;;;5013896;28;20936;-65
2021/07/11 08:16:56;;;;;;;3.00;2.53;;;;;;;;;;4998774;28;20488;-65
2021/07/11 08:19:21;;;;;;;4.30;2.78;;;;;;;;;;5000666;28;20075;-64
2021/07/11 08:21:53;;;;;;;3.65;2.25;;;;;;;;;;5014534;28;20045;-65
2021/07/11 08:24:22;;;;;;;4.22;2.85;;;;;;;;;;5014115;28;20480;-65
2021/07/11 08:26:48;;;;;;;3.63;2.70;;;;;;;;;;5015941;28;20051;-63
2021/07/11 08:29:16;;;;;;;3.90;2.70;;;;;;;;;;5029752;28;20155;-65
2021/07/11 08:31:45;;;;;;;3.08;2.78;;;;;;;;;;5015819;28;20603;-65
2021/07/11 08:34:13;;;;;;;2.90;2.55;;;;;;;;;;4998667;28;20037;-65
2021/07/11 08:36:41;;;;;;;5.80;2.88;;;;;;;;;;4998613;28;20460;-64
2021/07/11 08:39:06;;;;;;;5.15;2.83;;;;;;;;;;5031592;28;20036;-63
2021/07/11 08:41:32;;;;;;;6.10;3.17;;;;;;;;;;5014201;28;20484;-65
2021/07/11 08:43:57;;;;;;;4.80;2.88;;;;;;;;;;5031026;28;20593;-65
2021/07/11 08:46:25;;;;;;;3.03;2.47;;;;;;;;;;5015517;28;20033;-64
2021/07/11 08:48:53;;;;;;;4.50;2.58;;;;;;;;;;5012757;28;20028;-65
2021/07/11 08:51:20;;;;;;;5.18;3.15;;;;;;;;;;4998876;28;20041;-65
2021/07/11 08:53:50;;;;;;;3.28;2.97;;;;;;;;;;5031549;28;20029;-66
2021/07/11 08:56:25;;;;;;;4.78;3.35;;;;;;;;;;5030509;28;20128;-65
2021/07/11 08:58:56;;;;;;;5.10;3.63;;;;;;;;;;5013289;28;20057;-65
2021/07/11 09:01:25;;;;;;;4.53;3.25;;;;;;;;;;5014088;28;20043;-65
2021/07/11 09:04:02;;;;;;;6.30;3.10;;;;;;;;;;5012647;28;20128;-65
2021/07/11 09:06:48;;;;;;;3.92;2.60;;;;;;;;;;5032830;28;20032;-64
2021/07/11 09:09:28;;;;;;;3.65;2.67;;;;;;;;;;5013876;28;20440;-65
2021/07/11 09:11:59;;;;;;;4.63;2.88;;;;;;;;;;5031919;28;20029;-65
2021/07/11 09:14:26;;;;;;;3.97;2.78;;;;;;;;;;5035138;28;20130;-66
2021/07/11 09:16:54;;;;;;;3.28;2.92;;;;;;;;;;5035662;28;20033;-66
2021/07/11 09:19:30;;;;;;;8.38;3.92;;;;;;;;;;5035386;28;20142;-65
2021/07/11 09:21:58;;;;;;;3.63;2.83;;;;;;;;;;5018860;28;20045;-65
2021/07/11 09:24:29;;;;;;;3.97;3.00;;;;;;;;;;5030307;28;20048;-65
2021/07/11 09:26:56;;;;;;;3.28;2.40;;;;;;;;;;5018083;28;20041;-65
2021/07/11 09:29:25;;;;;;;3.25;2.75;;;;;;;;;;5034616;28;20051;-64
2021/07/11 09:31:55;;;;;;;3.85;2.75;;;;;;;;;;4994907;28;20041;-64
2021/07/11 09:34:23;;;;;;;4.55;2.95;;;;;;;;;;5017792;28;20032;-65
2021/07/11 09:37:08;;;;;;;3.88;2.75;;;;;;;;;;5034599;28;20044;-65
2021/07/11 09:39:34;;;;;;;6.20;2.78;;;;;;;;;;5036087;28;20617;-66
2021/07/11 09:42:04;;;;;;;7.13;2.80;;;;;;;;;;5033360;28;20136;-63
2021/07/11 09:44:38;;;;;;;5.47;3.58;;;;;;;;;;5035237;28;20036;-64
2021/07/11 09:47:13;;;;;;;7.93;3.42;;;;;;;;;;4991570;28;22055;-65
2021/07/11 09:49:58;;;;;;;3.78;2.97;;;;;;;;;;5034812;28;20127;-63
2021/07/11 09:52:26;;;;;;;4.00;2.92;;;;;;;;;;5002044;28;20947;-66
2021/07/11 09:54:57;;;;;;;3.35;2.67;;;;;;;;;;5034177;28;20417;-66
2021/07/11 09:57:52;;;;;;;4.90;2.50;;;;;;;;;;5017425;28;20036;-64
2021/07/11 10:00:25;;;;;;;4.70;2.85;;;;;;;;;;4998194;28;20607;-62
2021/07/11 10:02:52;;;;;;;3.85;2.72;;;;;;;;;;5035890;28;20033;-64
2021/07/11 10:05:18;;;;;;;4.13;2.60;;;;;;;;;;5033957;28;20037;-64
2021/07/11 10:07:44;;;;;;;3.17;2.78;;;;;;;;;;5032169;28;20029;-65
2021/07/11 10:10:10;;;;;;;3.63;2.38;;;;;;;;;;5017320;28;20035;-66
2021/07/11 10:12:41;;;;;;;2.60;2.40;;;;;;;;;;5016682;28;20033;-64
2021/07/11 10:15:12;;;;;;;4.75;2.67;;;;;;;;;;5034199;28;20047;-64
2021/07/11 10:17:57;;;;;;;3.53;2.38;;;;;;;;;;5034121;28;20364;-65
2021/07/11 10:20:29;;;;;;;3.92;2.25;;;;;;;;;;4999905;28;20082;-67
2021/07/11 10:22:57;;;;;;;2.90;2.55;;;;;;;;;;5017303;28;20115;-64
2021/07/11 10:25:27;;;;;;;2.30;2.05;;;;;;;;;;4995967;28;20189;-64
2021/07/11 10:28:14;;;;;;;4.03;2.33;;;;;;;;;;5033280;28;20088;-63
2021/07/11 10:30:44;;;;;;;11.05;2.40;;;;;;;;;;5032080;28;20041;-65
2021/07/11 10:33:16;;;;;;;4.70;2.30;;;;;;;;;;5015220;28;20032;-65
2021/07/11 10:35:48;;;;;;;2.50;2.28;;;;;;;;;;5031521;28;20151;-65
2021/07/11 10:38:16;;;;;;;3.08;2.40;;;;;;;;;;5033104;28;20097;-65
2021/07/11 10:40:43;;;;;;;2.35;2.15;;;;;;;;;;5017501;28;20172;-65
2021/07/11 10:43:12;;;;;;;5.05;2.45;;;;;;;;;;5032330;28;20357;-64
2021/07/11 10:45:44;;;;;;;2.97;2.30;;;;;;;;;;4993662;28;20036;-64
2021/07/11 10:48:11;;;;;;;3.95;2.63;;;;;;;;;;4999990;28;20708;-63
2021/07/11 10:50:40;;;;;;;2.35;2.15;;;;;;;;;;5032540;28;20028;-64
2021/07/11 10:53:16;;;;;;;3.60;2.28;;;;;;;;;;5034438;28;20041;-65
2021/07/11 10:55:43;;;;;;;5.68;2.22;;;;;;;;;;5014651;28;20111;-63
2021/07/11 10:58:18;;;;;;;3.33;2.58;;;;;;;;;;5033502;28;20827;-64
2021/07/11 11:00:44;;;;;;;3.00;2.47;;;;;;;;;;5018117;28;20037;-64
2021/07/11 11:03:19;;;;;;;2.50;2.30;;;;;;;;;;5031325;28;20132;-65
2021/07/11 11:05:48;;;;;;;6.22;1.90;;;;;;;;;;5034043;28;20924;-64
2021/07/11 11:08:19;;;;;;;4.00;2.33;;;;;;;;;;5031884;28;21502;-65
2021/07/11 11:10:46;;;;;;;2.38;1.80;;;;;;;;;;5033570;28;20089;-65
2021/07/11 11:13:20;;;;;;;3.35;2.30;;;;;;;;;;5032603;28;20089;-64
2021/07/11 11:15:58;;;;;;;3.95;2.08;;;;;;;;;;5031171;28;20046;-67
2021/07/11 11:18:23;;;;;;;3.28;2.50;;;;;;;;;;5002467;28;20041;-64
2021/07/11 11:20:52;;;;;;;3.22;2.38;;;;;;;;;;5032785;28;20484;-63
2021/07/11 11:23:21;;;;;;;4.35;2.00;;;;;;;;;;5014462;28;20529;-64
2021/07/11 11:25:47;;;;;;;3.00;2.70;;;;;;;;;;5012832;28;20037;-64
2021/07/11 11:28:13;;;;;;;3.50;2.45;;;;;;;;;;4999402;28;20040;-64
2021/07/11 11:30:40;;;;;;;4.57;2.63;;;;;;;;;;5031944;28;20033;-64
2021/07/11 11:33:08;;;;;;;4.93;2.42;;;;;;;;;;5030624;28;20123;-64
2021/07/11 11:35:35;;;;;;;4.60;2.65;;;;;;;;;;5015159;28;20047;-65
2021/07/11 11:38:04;;;;;;;4.05;2.33;;;;;;;;;;5030950;28;20045;-66
2021/07/11 11:40:34;;;;;;;4.82;2.97;;;;;;;;;;5030591;28;20043;-64
2021/07/11 11:43:02;;;;;;;4.65;2.70;;;;;;;;;;5031955;28;20021;-65
2021/07/11 11:45:33;;;;;;;5.32;3.03;;;;;;;;;;5013466;28;20062;-67
2021/07/11 11:48:01;;;;;;;;;;;;;;;;;;5031917;28;20028;-66
2021/07/11 11:50:27;;;;;;;6.32;3.20;;;;;;;;;;5015621;28;19928;-65
2021/07/11 11:53:02;;;;;;;8.48;2.60;;;;;;;;;;5033120;28;20040;-65
2021/07/11 11:55:33;;;;;;;4.50;2.85;;;;;;;;;;5032677;28;20032;-64
2021/07/11 11:58:02;;;;;;;3.17;2.65;;;;;;;;;;4986117;28;20028;-63
2021/07/11 12:00:28;;;;;;;3.33;2.28;;;;;;;;;;5013636;28;20036;-65
2021/07/11 12:03:07;;;;;;;4.25;2.65;;;;;;;;;;4980530;28;20590;-66
2021/07/11 12:05:34;;;;;;;3.25;2.55;;;;;;;;;;5031173;28;20037;-67
2021/07/11 12:08:00;;;;;;;3.55;2.40;;;;;;;;;;4997872;28;20036;-66
2021/07/11 12:10:27;;;;;;;8.45;2.50;;;;;;;;;;5032140;28;20385;-65
2021/07/11 12:13:04;;;;;;;6.10;3.30;;;;;;;;;;5032183;28;20314;-66
2021/07/11 12:15:31;;;;;;;4.63;2.92;;;;;;;;;;5014131;28;20044;-65
2021/07/11 12:18:02;;;;;;;4.15;2.53;;;;;;;;;;4997471;28;20021;-64
2021/07/11 12:20:30;;;;;;;10.20;3.42;;;;;;;;;;5015562;28;20071;-65
2021/07/11 12:22:58;;;;;;;5.22;3.05;;;;;;;;;;4998330;28;20485;-65
2021/07/11 12:25:30;;;;;;;5.80;3.33;;;;;;;;;;5015722;28;20027;-64
2021/07/11 12:28:02;;;;;;;5.80;2.33;;;;;;;;;;5011879;28;20044;-65
2021/07/11 12:30:34;;;;;;;5.07;3.00;;;;;;;;;;5032416;28;20049;-64
2021/07/11 12:33:01;;;;;;;6.18;2.90;;;;;;;;;;5014820;28;20094;-65
2021/07/11 12:35:27;;;;;;;5.60;3.15;;;;;;;;;;4998589;28;20036;-64
2021/07/11 12:37:58;;;;;;;4.63;3.28;;;;;;;;;;5013441;28;20067;-66
2021/07/11 12:40:33;;;;;;;5.22;3.25;;;;;;;;;;5015760;28;20120;-64
2021/07/11 12:43:20;;;;;;;5.68;2.47;;;;;;;;;;5002235;28;20040;-66
2021/07/11 12:46:12;;;;;;;6.47;3.10;;;;;;;;;;5015183;28;20174;-64
2021/07/11 12:48:44;;;;;;;6.13;2.75;;;;;;;;;;5013918;28;22025;-65
2021/07/11 12:51:13;;;;;;;4.68;3.13;;;;;;;;;;5022134;28;20124;-64
2021/07/11 12:53:39;;;;;;;4.63;2.80;;;;;;;;;;5017887;28;20098;-65
2021/07/11 12:56:05;;;;;;;6.28;3.17;;;;;;;;;;5033528;28;20156;-63
2021/07/11 12:58:37;;;;;;;5.80;2.60;;;;;;;;;;4987697;28;20041;-65
2021/07/11 13:01:06;;;;;;;5.22;3.08;;;;;;;;;;5017412;28;20033;-64
2021/07/11 13:03:31;;;;;;;2.15;1.92;;;;;;;;;;5035576;28;20083;-64
2021/07/11 13:06:02;;;;;;;8.63;2.30;;;;;;;;;;5018338;28;20033;-63
2021/07/11 13:08:32;;;;;;;5.78;2.35;;;;;;;;;;5034936;28;20030;-65
2021/07/11 13:11:00;;;;;;;5.32;2.20;;;;;;;;;;5017349;28;20068;-64
2021/07/11 13:13:28;;;;;;;6.68;2.40;;;;;;;;;;5016853;28;20024;-64
2021/07/11 13:15:55;;;;;;;5.40;2.20;;;;;;;;;;5018795;28;20079;-65
2021/07/11 13:18:21;;;;;;;5.07;2.58;;;;;;;;;;5000564;28;20039;-64
2021/07/11 13:20:49;;;;;;;6.00;2.38;;;;;;;;;;5017038;28;20062;-66
2021/07/11 13:23:16;;;;;;;4.57;2.13;;;;;;;;;;5002393;28;20981;-63
2021/07/11 13:25:45;;;;;;;5.97;3.20;;;;;;;;;;5035666;28;20033;-65
2021/07/11 13:28:13;;;;;;;3.25;2.35;;;;;;;;;;4999769;28;20025;-65
2021/07/11 13:30:42;;;;;;;5.57;2.42;;;;;;;;;;5020286;28;20175;-64
2021/07/11 13:33:07;;;;;;;5.10;2.60;;;;;;;;;;5000960;28;20090;-64
2021/07/11 13:35:37;;;;;;;9.23;2.80;;;;;;;;;;5004489;28;20043;-64
2021/07/11 13:38:09;;;;;;;4.03;2.60;;;;;;;;;;5021293;28;20064;-63
2021/07/11 13:40:34;;;;;;;3.00;2.55;;;;;;;;;;5017685;28;20211;-65
2021/07/11 13:43:00;;;;;;;4.95;2.75;;;;;;;;;;5015466;28;20056;-63
2021/07/11 13:45:25;;;;;;;3.58;2.17;;;;;;;;;;5000909;28;20025;-62
2021/07/11 13:47:50;;;;;;;4.78;2.88;;;;;;;;;;5004727;28;20029;-64
2021/07/11 13:50:18;;;;;;;4.72;2.47;;;;;;;;;;5016287;28;20070;-64
2021/07/11 13:52:48;;;;;;;6.95;2.85;;;;;;;;;;5035842;28;20122;-64
2021/07/11 13:55:18;;;;;;;7.43;2.72;;;;;;;;;;5002544;28;20483;-65
2021/07/11 13:57:44;;;;;;;4.50;3.08;;;;;;;;;;5004932;28;20039;-64
2021/07/11 14:00:10;;;;;;;4.15;2.30;;;;;;;;;;5015033;28;20033;-64
2021/07/11 14:02:38;;;;;;;3.72;2.55;;;;;;;;;;5016635;28;20025;-61
2021/07/11 14:05:05;;;;;;;4.53;2.88;;;;;;;;;;5035064;28;20037;-63
2021/07/11 14:07:33;;;;;;;8.60;3.70;;;;;;;;;;5016382;28;20016;-65
2021/07/11 14:10:01;;;;;;;5.70;2.70;;;;;;;;;;5016983;28;20029;-64
2021/07/11 14:12:27;;;;;;;3.65;2.85;;;;;;;;;;5034837;28;20043;-64
2021/07/11 14:14:57;;;;;;;9.93;2.88;;;;;;;;;;5033531;28;20032;-63
2021/07/11 14:17:23;;;;;;;3.78;3.05;;;;;;;;;;5035104;28;20040;-63
2021/07/11 14:19:51;;;;;;;3.10;2.42;;;;;;;;;;5015208;28;20114;-63
2021/07/11 14:22:17;;;;;;;4.32;2.92;;;;;;;;;;5035551;28;20062;-62
2021/07/11 14:24:43;;;;;;;4.63;2.90;;;;;;;;;;5034258;28;20425;-64
2021/07/11 14:27:11;;;;;;;8.48;2.97;;;;;;;;;;5034534;28;20063;-65
2021/07/11 14:29:42;;;;;;;3.38;2.03;;;;;;;;;;4999194;28;20111;-63
2021/07/11 14:32:10;;;;;;;3.67;1.90;;;;;;;;;;5032037;28;20115;-63
2021/07/11 14:34:35;;;;;;;6.15;2.15;;;;;;;;;;4990335;28;20953;-63
2021/07/11 14:37:03;;;;;;;3.28;1.67;;;;;;;;;;5034292;28;20025;-64
2021/07/11 14:39:31;;;;;;;3.03;1.88;;;;;;;;;;5003262;28;20187;-64
2021/07/11 14:41:57;;;;;;;3.00;2.03;;;;;;;;;;5015703;28;20139;-63
2021/07/11 14:44:28;;;;;;;6.55;1.92;;;;;;;;;;5012603;28;20033;-63
2021/07/11 14:46:57;;;;;;;3.00;2.05;;;;;;;;;;5016862;28;21001;-63